Time;durP1;ratioP1;P1;durP2;ratioP2;P2;SDS_P1;SDS_P2;PMS_P1;PMS_P2;Temp;Humidity;BMP_temperature;BMP_pressure;BME280_temperature;BME280_humidity;BME280_pressure;Samples;Min_cycle;Max_cycle;Signal;HPM_P1;HPM_P2
2023/05/22 12:40:15;;;;;;;14.48;8.85;;;;;;;-145.06;0.00;60892.56;5959911;23;20479;-91
2023/05/22 12:43:02;;;;;;;15.50;9.32;;;;;;;-145.06;0.00;60892.56;5951300;23;20037;-92
2023/05/22 12:57:49;;;;;;;13.40;7.30;;;;;;;-145.06;0.00;60892.56;5791209;23;20016;-95
2023/05/22 13:15:52;;;;;;;13.75;8.55;;;;;;;-145.06;0.00;60892.56;5970757;23;20016;-93
2023/05/22 16:01:12;;;;;;;13.10;9.55;;;;;;;187.52;0.00;60892.56;5959756;23;20088;-93
2023/05/22 16:03:51;;;;;;;13.45;9.93;;;;;;;-145.06;0.00;60892.56;5950876;23;20309;-92
2023/05/22 16:06:31;;;;;;;10.90;8.25;;;;;;;23.30;0.00;60892.56;5950827;23;20009;-93
2023/05/22 16:09:10;;;;;;;12.43;8.63;;;;;;;-145.06;0.00;60892.56;5938892;23;20010;-93
2023/05/22 16:11:49;;;;;;;11.48;8.52;;;;;;;-145.06;0.00;60892.56;5921995;23;20024;-91
2023/05/22 16:14:30;;;;;;;10.93;8.23;;;;;;;-145.06;0.00;60892.56;5921614;23;20076;-90
2023/05/22 16:17:10;;;;;;;12.90;9.00;;;;;;;-145.06;0.00;60892.56;5921167;23;20009;-92
2023/05/22 16:19:56;;;;;;;14.65;10.75;;;;;;;-145.06;0.00;60892.56;5922349;23;20001;-92
2023/05/22 16:22:35;;;;;;;13.43;9.82;;;;;;;-145.06;0.00;60892.56;5922526;23;20495;-92
2023/05/22 16:25:25;;;;;;;;;;;;;;;;;;;;;
2023/05/22 16:28:06;;;;;;;14.07;10.23;;;;;;;-145.06;0.00;60892.56;5955625;23;20089;-93
2023/05/22 16:30:45;;;;;;;14.20;10.27;;;;;;;-145.06;0.00;60892.56;5922142;23;20037;-93
2023/05/22 16:33:37;;;;;;;;;;;;;;;;;;;;;
2023/05/22 16:36:19;;;;;;;11.82;8.73;;;;;;;31.47;0.00;60892.56;5952958;23;20005;-92
2023/05/22 16:38:58;;;;;;;10.80;8.02;;;;;;;-145.06;0.00;60892.56;5921440;23;20006;-95
2023/05/22 16:41:37;;;;;;;15.43;11.38;;;;;;;-145.06;0.00;60892.56;5925953;23;20444;-93
2023/05/22 16:44:39;;;;;;;12.68;9.10;;;;;;;-145.06;0.00;60892.56;5921436;23;20010;-94
2023/05/22 16:47:20;;;;;;;12.48;8.25;;;;;;;-145.06;0.00;60892.56;5949371;23;20009;-94
2023/05/22 16:50:05;;;;;;;10.45;7.85;;;;;;;-145.06;0.00;60892.56;5920898;23;20353;-94
2023/05/22 16:52:44;;;;;;;10.20;7.10;;;;;;;-145.06;0.00;60892.56;5920972;23;20009;-92
2023/05/22 16:55:24;;;;;;;10.82;7.95;;;;;;;-145.06;0.00;60892.56;5900120;23;20479;-92
2023/05/22 16:58:03;;;;;;;11.77;8.50;;;;;;;-145.06;0.00;60892.56;5921074;23;20440;-93
2023/05/22 17:00:42;;;;;;;9.73;7.53;;;;;;;-145.06;0.00;60892.56;5921334;23;20009;-92
2023/05/22 17:03:24;;;;;;;11.32;7.93;;;;;;;-145.06;0.00;60892.56;5921731;23;20033;-92
2023/05/22 17:06:04;;;;;;;12.70;9.52;;;;;;;-145.06;0.00;60892.56;5921823;23;20009;-92
2023/05/22 17:08:46;;;;;;;11.80;9.68;;;;;;;23.20;0.00;60892.56;5922072;23;20080;-92
2023/05/22 17:11:25;;;;;;;11.63;8.25;;;;;;;-145.06;0.00;60892.56;5920728;23;20009;-92
2023/05/22 17:14:04;;;;;;;;;;;;;;;-145.06;0.00;60892.56;5921763;23;20080;-91
2023/05/22 17:16:44;;;;;;;9.55;7.78;;;;;;;23.35;0.00;60892.56;5921687;23;19924;-92
2023/05/22 17:19:27;;;;;;;11.43;8.57;;;;;;;-145.06;0.00;60892.56;5921266;23;20010;-92
2023/05/22 17:22:06;;;;;;;10.93;8.52;;;;;;;-145.06;0.00;60892.56;5922176;23;20028;-94
2023/05/22 17:24:50;;;;;;;13.27;9.45;;;;;;;-145.06;0.00;60892.56;5922297;23;20013;-92
2023/05/22 17:27:30;;;;;;;10.35;8.32;;;;;;;-145.06;0.00;60892.56;5921596;23;20381;-92
2023/05/22 17:30:13;;;;;;;9.45;7.45;;;;;;;-145.06;0.00;60892.56;5921349;23;20010;-93
2023/05/22 17:32:56;;;;;;;8.43;6.78;;;;;;;-145.06;0.00;60892.56;5943473;23;20032;-92
2023/05/22 17:35:38;;;;;;;8.13;6.80;;;;;;;-145.06;0.00;60892.56;5920686;23;20006;-91
2023/05/22 17:38:22;;;;;;;8.25;6.18;;;;;;;-145.06;0.00;60892.56;5920347;23;20009;-92
2023/05/22 17:41:01;;;;;;;7.68;6.03;;;;;;;-145.06;0.00;60892.56;5921454;23;20005;-92
2023/05/22 17:43:42;;;;;;;10.60;7.80;;;;;;;-145.06;0.00;60892.56;5921694;23;20006;-93
2023/05/22 17:46:26;;;;;;;8.07;6.55;;;;;;;-145.06;0.00;60892.56;5920903;23;20569;-92
2023/05/22 17:49:08;;;;;;;7.25;5.75;;;;;;;-145.06;0.00;60892.56;5919834;23;20005;-94
2023/05/22 17:52:00;;;;;;;;;;;;;;;;;;;;;
2023/05/22 17:58:28;;;;;;;9.45;7.07;;;;;;;-145.06;0.00;60892.56;5946347;23;20009;-90
2023/05/22 18:01:07;;;;;;;9.70;6.30;;;;;;;-145.06;0.00;60892.56;5920863;23;20002;-92
2023/05/22 18:03:56;;;;;;;8.98;6.30;;;;;;;-145.06;0.00;60892.56;5921186;23;20009;-93
2023/05/22 18:06:37;;;;;;;9.25;6.95;;;;;;;-145.06;0.00;60892.56;5921107;23;20005;-93
2023/05/22 18:09:16;;;;;;;9.40;6.60;;;;;;;-145.06;0.00;60892.56;5920470;23;20006;-92
2023/05/22 18:11:57;;;;;;;8.45;6.22;;;;;;;-145.06;0.00;60892.56;5920126;23;20013;-92
2023/05/22 18:14:39;;;;;;;6.90;5.32;;;;;;;-145.06;0.00;60892.56;5920402;23;20005;-92
2023/05/22 18:17:28;;;;;;;9.02;5.28;;;;;;;-145.06;0.00;60892.56;5919989;23;20002;-93
2023/05/22 18:20:10;;;;;;;10.15;6.50;;;;;;;-145.06;0.00;60892.56;5920496;23;20306;-92
2023/05/22 18:22:49;;;;;;;6.53;5.18;;;;;;;23.67;0.00;60892.56;5919290;23;20002;-93
2023/05/22 18:25:28;;;;;;;6.20;5.57;;;;;;;-145.06;0.00;60892.56;5919508;23;20029;-93
2023/05/22 18:28:10;;;;;;;11.05;6.80;;;;;;;-145.06;0.00;60892.56;5919628;23;20322;-92
2023/05/22 18:30:51;;;;;;;8.82;6.63;;;;;;;-145.06;0.00;60892.56;5918589;23;20006;-93
2023/05/22 18:33:32;;;;;;;8.07;5.82;;;;;;;-145.06;0.00;60892.56;5918933;23;20037;-93
2023/05/22 18:36:11;;;;;;;16.45;6.20;;;;;;;-145.06;0.00;60892.56;5918638;23;20009;-91
2023/05/22 18:38:50;;;;;;;9.07;5.95;;;;;;;-145.06;0.00;60892.56;5918534;23;20037;-92
2023/05/22 18:41:29;;;;;;;7.60;5.65;;;;;;;-145.06;0.00;60892.56;5919610;23;20002;-92
2023/05/22 18:44:08;;;;;;;6.60;4.72;;;;;;;-145.06;0.00;60892.56;5918785;23;20006;-92
2023/05/22 18:46:50;;;;;;;6.88;5.00;;;;;;;-145.06;0.00;60892.56;5919302;23;20013;-93
2023/05/22 18:49:29;;;;;;;8.90;6.20;;;;;;;-145.06;0.00;60892.56;5919048;23;20005;-93
2023/05/22 18:52:08;;;;;;;6.72;5.57;;;;;;;-145.06;0.00;60892.56;5918826;23;20391;-92
2023/05/22 18:54:47;;;;;;;9.00;5.90;;;;;;;-145.06;0.00;60892.56;5921833;23;20009;-93
2023/05/22 18:57:28;;;;;;;9.52;6.50;;;;;;;-145.06;0.00;60892.56;5938126;23;20132;-93
2023/05/22 19:00:15;;;;;;;6.97;5.53;;;;;;;-145.06;0.00;60892.56;5939526;23;20018;-93
2023/05/22 19:02:54;;;;;;;8.00;5.40;;;;;;;-145.06;0.00;60892.56;5920859;23;20005;-94
2023/05/22 19:05:33;;;;;;;8.13;5.60;;;;;;;-145.06;0.00;60892.56;5918739;23;20017;-92
2023/05/22 19:08:23;;;;;;;10.18;6.43;;;;;;;-145.06;0.00;60892.56;5920054;23;20013;-93
2023/05/22 19:11:02;;;;;;;;;;;;;;;-145.06;0.00;60892.56;5920537;23;20009;-93
2023/05/22 19:13:42;;;;;;;7.57;5.93;;;;;;;-145.06;0.00;60892.56;5919329;23;19987;-92
2023/05/22 19:16:22;;;;;;;7.28;6.30;;;;;;;-145.06;0.00;60892.56;5940070;23;20009;-92
2023/05/22 19:19:15;;;;;;;;;;;;;;;;;;;;;
2023/05/22 19:22:09;;;;;;;6.68;5.22;;;;;;;-145.06;0.00;60892.56;5951959;23;20009;-92
2023/05/22 19:25:23;;;;;;;;;;;;;;;;;;;;;
2023/05/22 19:28:11;;;;;;;7.72;5.55;;;;;;;-145.06;0.00;60892.56;5951286;23;20005;-92
2023/05/22 19:31:56;;;;;;;;;;;;;;;;;;;;;
2023/05/22 19:35:23;;;;;;;;;;;;;;;;;;;;;
2023/05/22 19:41:50;;;;;;;;;;;;;;;;;;;;;
2023/05/22 19:45:04;;;;;;;4.95;3.88;;;;;;;-145.06;0.00;60892.56;5951537;23;20322;-93
2023/05/22 19:51:47;;;;;;;;;;;;;;;;;;;;;
2023/05/22 19:55:09;;;;;;;5.15;3.67;;;;;;;-145.06;0.00;60892.56;5950366;23;20080;-92
2023/05/22 20:01:35;;;;;;;6.25;3.88;;;;;;;-145.06;0.00;60892.56;5952348;23;19997;-93
2023/05/22 20:04:35;;;;;;;;;;;;;;;;;;;;;
2023/05/22 20:07:38;;;;;;;;;;;;;;;;;;;;;
2023/05/22 20:10:33;;;;;;;;;;;;;;;;;;;;;
2023/05/22 20:35:57;;;;;;;;;;;;;;;;;;;;;
2023/05/22 20:39:06;;;;;;;5.03;3.67;;;;;;;20.62;0.00;60892.56;5952297;23;20005;-96
2023/05/22 20:42:43;;;;;;;;;;;;;;;;;;;;;
2023/05/22 20:46:01;;;;;;;;;;;;;;;;;;;;;
2023/05/22 20:49:08;;;;;;;;;;;;;;;;;;;;;
2023/05/22 20:51:53;;;;;;;4.25;3.20;;;;;;;-145.06;0.00;60892.56;5951989;23;20009;-96
2023/05/22 20:55:26;;;;;;;;;;;;;;;;;;;;;
2023/05/22 20:58:18;;;;;;;;;;;;;;;;;;;;;
2023/05/22 21:01:16;;;;;;;4.85;3.17;;;;;;;-145.06;0.00;60892.56;5952282;23;20085;-96
2023/05/22 21:04:01;;;;;;;6.70;3.97;;;;;;;-145.06;0.00;60892.56;5912088;23;20078;-95
2023/05/22 21:07:16;;;;;;;;;;;;;;;;;;;;;
2023/05/22 21:10:26;;;;;;;4.63;3.03;;;;;;;-145.06;0.00;60892.56;5951722;23;20005;-95
2023/05/22 21:13:11;;;;;;;;;;;;;;;-145.06;0.00;60892.56;5883902;23;20010;-95
2023/05/22 21:16:14;;;;;;;4.43;2.95;;;;;;;-145.06;0.00;60892.56;5920257;23;19904;-95
2023/05/22 21:19:01;;;;;;;4.40;3.53;;;;;;;-145.06;0.00;60892.56;5918378;23;20009;-95
2023/05/22 21:22:04;;;;;;;4.75;3.40;;;;;;;-145.06;0.00;60892.56;5920490;23;20033;-95
2023/05/22 21:25:38;;;;;;;;;;;;;;;;;;;;;
2023/05/22 21:31:38;;;;;;;6.78;4.40;;;;;;;-145.06;0.00;60892.56;5948701;23;20018;-94
2023/05/22 21:34:45;;;;;;;5.22;3.95;;;;;;;-145.06;0.00;60892.56;5919896;23;20013;-95
2023/05/22 21:37:31;;;;;;;7.20;5.22;;;;;;;-145.06;0.00;60892.56;5919894;23;20010;-95
2023/05/22 21:40:27;;;;;;;7.70;5.13;;;;;;;-145.06;0.00;60892.56;5920469;23;20010;-96
2023/05/22 21:43:15;;;;;;;10.60;5.55;;;;;;;-145.06;0.00;60892.56;5921052;23;20001;-94
2023/05/22 21:46:06;;;;;;;8.20;5.00;;;;;;;-145.06;0.00;60892.56;5920442;23;20001;-94
2023/05/22 21:48:52;;;;;;;8.93;5.05;;;;;;;-145.06;0.00;60892.56;5920439;23;20282;-95
2023/05/22 21:51:46;;;;;;;;;;;;;;;;;;;;;
2023/05/22 21:54:30;;;;;;;8.07;5.13;;;;;;;-145.06;0.00;60892.56;5952045;23;20009;-94
2023/05/22 21:57:42;;;;;;;9.98;6.10;;;;;;;-145.06;0.00;60892.56;5919791;23;20009;-94
2023/05/22 22:00:35;;;;;;;9.00;6.15;;;;;;;-145.06;0.00;60892.56;5919938;23;20002;-94
2023/05/22 22:03:44;;;;;;;;;;;;;;;;;;;;;
2023/05/22 22:06:37;;;;;;;8.23;5.35;;;;;;;-145.06;0.00;60892.56;5951758;23;20006;-95
2023/05/22 22:09:25;;;;;;;7.50;5.07;;;;;;;-145.06;0.00;60892.56;5920112;23;20433;-93
2023/05/22 22:13:03;;;;;;;;;;;;;;;;;;;;;
2023/05/22 22:15:53;;;;;;;9.88;5.90;;;;;;;-145.06;0.00;60892.56;5951242;23;20014;-95
2023/05/22 22:19:00;;;;;;;9.73;6.07;;;;;;;-145.06;0.00;60892.56;5919568;23;20019;-95
2023/05/22 22:22:00;;;;;;;9.35;5.88;;;;;;;-145.06;0.00;60892.56;5919911;23;20037;-93
2023/05/22 22:25:13;;;;;;;9.23;5.43;;;;;;;18.47;0.00;60892.56;5920298;23;20009;-95
2023/05/22 22:28:04;;;;;;;7.95;5.00;;;;;;;-145.06;0.00;60892.56;5920975;23;20014;-95
2023/05/22 22:31:23;;;;;;;8.38;4.82;;;;;;;-145.06;0.00;60892.56;5943175;23;20053;-95
2023/05/22 22:34:25;;;;;;;;;;;;;;;;;;;;;
2023/05/22 22:37:23;;;;;;;8.98;5.25;;;;;;;-145.06;0.00;60892.56;5951778;23;20005;-93
2023/05/22 22:40:06;;;;;;;7.45;5.05;;;;;;;18.28;0.00;60892.56;5920664;23;20014;-94
2023/05/22 22:43:08;;;;;;;7.53;5.03;;;;;;;18.21;0.00;60892.56;5920211;23;20005;-95
2023/05/22 22:46:13;;;;;;;9.77;5.60;;;;;;;-145.06;0.00;60892.56;5920827;23;20009;-95
2023/05/22 22:49:01;;;;;;;7.70;4.93;;;;;;;-145.06;0.00;60892.56;5919755;23;20013;-95
2023/05/22 22:51:51;;;;;;;8.02;5.90;;;;;;;-145.06;0.00;60892.56;5920406;23;20002;-95
2023/05/22 22:54:35;;;;;;;7.65;5.05;;;;;;;-145.06;0.00;60892.56;5920473;23;20381;-94
2023/05/22 22:57:25;;;;;;;8.57;5.75;;;;;;;-145.06;0.00;60892.56;5919975;23;20009;-95
2023/05/22 23:00:38;;;;;;;;;;;;;;;;;;;;;
2023/05/22 23:03:27;;;;;;;9.52;5.43;;;;;;;-145.06;0.00;60892.56;5951800;23;20024;-94
2023/05/22 23:06:37;;;;;;;8.15;5.45;;;;;;;-145.06;0.00;60892.56;5920485;23;20436;-94
2023/05/22 23:09:21;;;;;;;;;;;;;;;-145.06;0.00;60892.56;5920089;23;20033;-95
2023/05/22 23:12:17;;;;;;;6.72;4.50;;;;;;;-145.06;0.00;60892.56;5919383;23;19909;-94
2023/05/22 23:15:07;;;;;;;6.97;4.38;;;;;;;-145.06;0.00;60892.56;5919818;23;20010;-94
2023/05/22 23:18:06;;;;;;;7.65;4.65;;;;;;;-145.06;0.00;60892.56;5918884;23;20005;-94
2023/05/22 23:24:06;;;;;;;8.18;5.43;;;;;;;-145.06;0.00;60892.56;5951467;23;20010;-95
2023/05/22 23:26:58;;;;;;;;;;;;;;;;;;;;;
2023/05/22 23:29:47;;;;;;;7.80;5.25;;;;;;;-145.06;0.00;60892.56;5954754;23;20006;-95
2023/05/22 23:32:29;;;;;;;;;;;;;;;-145.06;0.00;60892.56;5942839;23;20006;-94
2023/05/22 23:35:29;;;;;;;6.88;4.47;;;;;;;-145.06;0.00;60892.56;5920901;23;19905;-94
2023/05/22 23:38:12;;;;;;;6.43;4.32;;;;;;;-145.06;0.00;60892.56;5921691;23;20384;-94
2023/05/22 23:41:06;;;;;;;8.63;4.88;;;;;;;-145.06;0.00;60892.56;5923212;23;20014;-94
2023/05/22 23:43:51;;;;;;;6.97;4.60;;;;;;;-145.06;0.00;60892.56;5923158;23;20373;-94
2023/05/22 23:46:54;;;;;;;;;;;;;;;;;;;;;
2023/05/22 23:49:58;;;;;;;6.35;4.00;;;;;;;-145.06;0.00;60892.56;5953885;23;20005;-95
2023/05/22 23:52:39;;;;;;;5.82;3.92;;;;;;;-145.06;0.00;60892.56;5922541;23;20005;-94
2023/05/22 23:55:21;;;;;;;5.65;4.10;;;;;;;-145.06;0.00;60892.56;5922539;23;20500;-94
2023/05/22 23:58:00;;;;;;;6.68;3.95;;;;;;;-145.06;0.00;60892.56;5922415;23;20025;-94
